createdAt,value
2019-01-14T00:00:30.092Z,-2.61
2019-01-14T00:02:59.430Z,-2.70
2019-01-14T00:05:28.120Z,-2.81
2019-01-14T00:07:56.793Z,-2.88
2019-01-14T00:10:25.633Z,-2.94
2019-01-14T00:12:54.321Z,-2.95
2019-01-14T00:15:23.005Z,-2.95
2019-01-14T00:17:52.041Z,-2.92
2019-01-14T00:20:20.721Z,-2.93
2019-01-14T00:22:49.394Z,-2.92
2019-01-14T00:25:18.235Z,-2.96
2019-01-14T00:27:46.930Z,-3.06
2019-01-14T00:30:17.907Z,-3.02
2019-01-14T00:32:46.647Z,-3.22
2019-01-14T00:35:15.324Z,-3.22
2019-01-14T00:37:43.938Z,-2.96
2019-01-14T00:40:15.259Z,-2.91
2019-01-14T00:42:43.942Z,-3.27
2019-01-14T00:45:12.811Z,-3.27
2019-01-14T00:47:41.657Z,-3.50
2019-01-14T00:50:13.143Z,-3.50
2019-01-14T00:52:41.828Z,-3.64
2019-01-14T00:55:11.362Z,-3.54
2019-01-14T00:57:40.051Z,-3.56
2019-01-14T01:00:17.338Z,-3.85
2019-01-14T01:02:46.019Z,-4.12
2019-01-14T01:05:14.799Z,-4.27
2019-01-14T01:07:43.640Z,-4.30
2019-01-14T01:10:15.028Z,-4.12
2019-01-14T01:12:43.816Z,-4.26
2019-01-14T01:15:15.551Z,-4.34
2019-01-14T01:17:44.835Z,-4.25
2019-01-14T01:20:16.834Z,-4.29
2019-01-14T01:22:46.093Z,-4.31
2019-01-14T01:25:14.984Z,-4.30
2019-01-14T01:27:43.665Z,-4.41
2019-01-14T01:30:15.419Z,-4.43
2019-01-14T01:32:44.111Z,-4.52
2019-01-14T01:35:14.106Z,-4.64
2019-01-14T01:37:42.825Z,-4.35
2019-01-14T01:40:14.480Z,-4.34
2019-01-14T01:42:43.164Z,-4.48
2019-01-14T01:45:12.533Z,-4.52
2019-01-14T01:47:41.440Z,-4.63
2019-01-14T01:50:15.110Z,-4.67
2019-01-14T01:52:43.836Z,-4.80
2019-01-14T01:55:13.423Z,-4.86
2019-01-14T01:57:42.115Z,-4.83
2019-01-14T02:00:16.676Z,-4.56
2019-01-14T02:02:45.356Z,-4.66
2019-01-14T02:05:14.842Z,-4.72
2019-01-14T02:07:43.588Z,-4.79
2019-01-14T02:10:15.236Z,-4.84
2019-01-14T02:12:43.915Z,-4.73
2019-01-14T02:15:15.172Z,-4.74
2019-01-14T02:17:43.857Z,-4.73
2019-01-14T02:20:15.034Z,-4.75
2019-01-14T02:22:43.846Z,-4.93
2019-01-14T02:25:14.145Z,-4.84
2019-01-14T02:27:42.832Z,-4.94
2019-01-14T02:30:19.748Z,-5.03
2019-01-14T02:32:48.411Z,-5.11
2019-01-14T02:35:17.097Z,-5.13
2019-01-14T02:37:46.413Z,-5.13
2019-01-14T02:40:20.113Z,-5.19
2019-01-14T02:42:48.801Z,-5.25
2019-01-14T02:45:17.825Z,-5.27
2019-01-14T02:47:46.512Z,-5.34
2019-01-14T02:50:15.997Z,-5.47
2019-01-14T02:52:44.719Z,-5.47
2019-01-14T02:55:13.924Z,-5.41
2019-01-14T02:57:42.585Z,-5.41
2019-01-14T03:00:20.286Z,-5.49
2019-01-14T03:02:48.980Z,-5.44
2019-01-14T03:05:17.662Z,-5.41
2019-01-14T03:07:46.811Z,-5.41
2019-01-14T03:10:15.603Z,-5.45
2019-01-14T03:12:44.284Z,-5.39
2019-01-14T03:15:15.325Z,-5.12
2019-01-14T03:17:44.014Z,-5.12
2019-01-14T03:20:15.664Z,-5.24
2019-01-14T03:22:44.826Z,-5.20
2019-01-14T03:25:14.722Z,-5.49
2019-01-14T03:27:43.338Z,-5.57
2019-01-14T03:30:14.947Z,-5.57
2019-01-14T03:32:43.641Z,-5.45
2019-01-14T03:35:12.409Z,-5.47
2019-01-14T03:37:41.277Z,-5.49
2019-01-14T03:40:12.954Z,-5.52
2019-01-14T03:42:41.639Z,-5.57
2019-01-14T03:45:11.893Z,-5.69
2019-01-14T03:47:40.564Z,-5.72
2019-01-14T03:50:12.880Z,-5.65
2019-01-14T03:52:41.568Z,-5.65
2019-01-14T03:55:10.248Z,-5.62
2019-01-14T03:57:39.222Z,-5.62
2019-01-14T04:00:11.142Z,-5.63
2019-01-14T04:02:39.832Z,-5.57
2019-01-14T04:05:10.180Z,-5.55
2019-01-14T04:07:39.105Z,-5.55
2019-01-14T04:10:10.996Z,-5.46
2019-01-14T04:12:39.681Z,-5.57
2019-01-14T04:15:11.015Z,-5.73
2019-01-14T04:17:39.698Z,-5.73
2019-01-14T04:20:11.285Z,-5.76
2019-01-14T04:22:40.032Z,-5.71
2019-01-14T04:25:09.820Z,-5.75
2019-01-14T04:27:38.506Z,-5.80
2019-01-14T04:30:19.174Z,-5.80
2019-01-14T04:32:47.866Z,-5.74
2019-01-14T04:35:17.039Z,-5.79
2019-01-14T04:37:45.869Z,-5.29
2019-01-14T04:40:16.058Z,-5.29
2019-01-14T04:42:44.745Z,-5.65
2019-01-14T04:45:15.389Z,-5.71
2019-01-14T04:47:44.077Z,-5.71
2019-01-14T04:50:15.814Z,-5.86
2019-01-14T04:52:44.577Z,-5.93
2019-01-14T04:55:13.371Z,-5.93
2019-01-14T04:57:42.039Z,-5.70
2019-01-14T05:00:19.619Z,-6.10
2019-01-14T05:02:48.314Z,-6.10
2019-01-14T05:05:17.703Z,-6.23
2019-01-14T05:07:46.474Z,-6.22
2019-01-14T05:10:17.870Z,-6.30
2019-01-14T05:12:46.656Z,-6.30
2019-01-14T05:15:15.433Z,-6.05
2019-01-14T05:17:44.126Z,-6.05
2019-01-14T05:20:19.271Z,-5.72
2019-01-14T05:22:48.385Z,-5.77
2019-01-14T05:25:17.080Z,-5.72
2019-01-14T05:27:45.766Z,-5.77
2019-01-14T05:30:17.050Z,-5.77
2019-01-14T05:32:45.735Z,-5.91
2019-01-14T05:35:14.821Z,-5.38
2019-01-14T05:37:43.553Z,-5.51
2019-01-14T05:40:15.280Z,-5.51
2019-01-14T05:42:43.978Z,-5.74
2019-01-14T05:45:13.117Z,-5.65
2019-01-14T05:47:41.799Z,-5.74
2019-01-14T05:50:13.787Z,-5.49
2019-01-14T05:52:42.513Z,-5.48
2019-01-14T05:55:12.510Z,-5.48
2019-01-14T05:57:41.197Z,-5.67
2019-01-14T06:00:21.835Z,-5.74
2019-01-14T06:02:50.518Z,-5.62
2019-01-14T06:05:19.216Z,-5.27
2019-01-14T06:07:47.923Z,-5.27
2019-01-14T06:10:16.616Z,-5.19
2019-01-14T06:12:45.299Z,-5.35
2019-01-14T06:15:16.003Z,-5.35
2019-01-14T06:17:44.692Z,-5.56
2019-01-14T06:20:16.481Z,-5.64
2019-01-14T06:22:45.753Z,-5.68
2019-01-14T06:25:15.561Z,-5.59
2019-01-14T06:27:44.249Z,-5.47
2019-01-14T06:30:24.840Z,-5.24
2019-01-14T06:32:53.528Z,-5.24
2019-01-14T06:35:22.209Z,-5.13
2019-01-14T06:37:52.588Z,-4.93
2019-01-14T06:40:21.959Z,-5.01
2019-01-14T06:42:50.638Z,-5.00
2019-01-14T06:45:19.564Z,-4.94
2019-01-14T06:47:48.247Z,-4.85
2019-01-14T06:50:18.847Z,-4.98
2019-01-14T06:52:47.561Z,-4.91
2019-01-14T06:55:16.981Z,-4.99
2019-01-14T06:57:45.864Z,-4.92
2019-01-14T07:00:20.687Z,-3.96
2019-01-14T07:02:49.383Z,-3.83
2019-01-14T07:05:19.867Z,-3.83
2019-01-14T07:07:48.670Z,-3.73
2019-01-14T07:10:20.282Z,-3.76
2019-01-14T07:12:49.010Z,-3.51
2019-01-14T07:15:17.728Z,-3.06
2019-01-14T07:17:46.408Z,-2.70
2019-01-14T07:20:15.802Z,-2.40
2019-01-14T07:22:44.540Z,-2.26
2019-01-14T07:25:13.319Z,-2.28
2019-01-14T07:27:41.996Z,-1.97
2019-01-14T07:30:16.467Z,-1.84
2019-01-14T07:32:45.151Z,-1.71
2019-01-14T07:35:15.233Z,-1.65
2019-01-14T07:37:47.578Z,-1.51
2019-01-14T07:40:20.041Z,-1.07
2019-01-14T07:42:48.736Z,-0.42
2019-01-14T07:45:23.352Z,-0.60
2019-01-14T07:47:52.054Z,-0.30
2019-01-14T07:50:20.747Z,0.32
2019-01-14T07:52:49.683Z,0.82
2019-01-14T07:55:19.598Z,1.26
2019-01-14T07:57:48.867Z,1.06
2019-01-14T08:00:26.125Z,0.53
2019-01-14T08:02:55.214Z,0.38
2019-01-14T08:05:23.893Z,1.12
2019-01-14T08:07:52.715Z,1.66
2019-01-14T08:10:21.395Z,2.22
2019-01-14T08:12:50.076Z,2.58
2019-01-14T08:15:20.610Z,2.35
2019-01-14T08:17:49.283Z,2.74
2019-01-14T08:20:17.959Z,2.64
2019-01-14T08:22:47.126Z,2.72
2019-01-14T08:25:16.098Z,2.66
2019-01-14T08:27:47.506Z,2.23
2019-01-14T08:30:18.819Z,2.40
2019-01-14T08:32:47.494Z,2.41
2019-01-14T08:35:16.378Z,2.61
2019-01-14T08:37:45.455Z,2.65
2019-01-14T08:40:16.436Z,2.29
2019-01-14T08:42:45.119Z,2.33
2019-01-14T08:45:14.346Z,2.55
2019-01-14T08:47:43.098Z,2.66
2019-01-14T08:50:19.295Z,2.86
2019-01-14T08:52:47.978Z,3.17
2019-01-14T08:55:16.666Z,3.22
2019-01-14T08:57:45.489Z,3.93
2019-01-14T09:00:19.414Z,3.79
2019-01-14T09:02:48.088Z,4.25
2019-01-14T09:05:17.447Z,4.29
2019-01-14T09:07:46.210Z,4.88
2019-01-14T09:10:20.739Z,4.74
2019-01-14T09:12:49.546Z,4.68
2019-01-14T09:15:19.014Z,4.81
2019-01-14T09:17:47.681Z,5.08
2019-01-14T09:20:19.169Z,5.15
2019-01-14T09:22:48.256Z,5.14
2019-01-14T09:25:17.028Z,5.08
2019-01-14T09:27:45.866Z,5.36
2019-01-14T09:30:20.297Z,5.41
2019-01-14T09:32:48.973Z,5.60
2019-01-14T09:35:17.794Z,5.74
2019-01-14T09:37:46.479Z,5.43
2019-01-14T09:40:17.799Z,4.81
2019-01-14T09:42:46.621Z,5.15
2019-01-14T09:45:15.503Z,5.09
2019-01-14T09:47:44.277Z,4.92
2019-01-14T09:50:14.891Z,4.79
2019-01-14T09:52:43.757Z,5.05
2019-01-14T09:55:14.417Z,5.18
2019-01-14T09:57:43.272Z,5.49
2019-01-14T10:00:12.447Z,5.54
2019-01-14T10:02:41.226Z,5.34
2019-01-14T10:05:12.373Z,5.38
2019-01-14T10:07:41.150Z,5.37
2019-01-14T10:10:12.831Z,5.44
2019-01-14T10:12:41.682Z,5.27
2019-01-14T10:15:13.259Z,5.34
2019-01-14T10:17:42.042Z,5.19
2019-01-14T10:20:11.780Z,5.06
2019-01-14T10:22:40.452Z,5.11
2019-01-14T10:25:09.935Z,5.31
2019-01-14T10:27:39.623Z,5.05
2019-01-14T10:30:13.932Z,5.29
2019-01-14T10:32:42.606Z,5.25
2019-01-14T10:35:11.453Z,4.99
2019-01-14T10:37:40.116Z,5.02
2019-01-14T10:40:12.098Z,5.14
2019-01-14T10:42:40.865Z,5.03
2019-01-14T10:45:18.419Z,5.31
2019-01-14T10:47:47.147Z,5.37
2019-01-14T10:50:15.921Z,5.44
2019-01-14T10:52:44.609Z,5.62
2019-01-14T10:55:13.611Z,5.43
2019-01-14T10:57:42.393Z,5.46
2019-01-14T11:00:25.459Z,5.53
2019-01-14T11:02:54.321Z,6.18
2019-01-14T11:05:25.695Z,5.97
2019-01-14T11:07:54.509Z,5.93
2019-01-14T11:10:23.196Z,5.71
2019-01-14T11:12:51.879Z,5.93
2019-01-14T11:15:22.483Z,6.73
2019-01-14T11:17:51.168Z,7.01
2019-01-14T11:20:22.798Z,7.56
2019-01-14T11:22:51.517Z,8.08
2019-01-14T11:25:20.197Z,8.00
2019-01-14T11:27:49.284Z,7.49
2019-01-14T11:30:23.705Z,7.17
2019-01-14T11:32:52.389Z,7.35
2019-01-14T11:35:21.066Z,7.02
2019-01-14T11:37:50.271Z,6.92
2019-01-14T11:40:30.736Z,7.18
2019-01-14T11:42:59.564Z,6.72
2019-01-14T11:45:28.243Z,7.12
2019-01-14T11:47:56.966Z,7.15
2019-01-14T11:50:25.680Z,7.55
2019-01-14T11:52:54.362Z,7.40
2019-01-14T11:55:23.029Z,6.89
2019-01-14T11:57:51.857Z,7.04
2019-01-14T12:00:23.138Z,7.17
2019-01-14T12:02:52.313Z,7.28
2019-01-14T12:05:21.527Z,6.73
2019-01-14T12:07:50.313Z,6.40
2019-01-14T12:10:18.990Z,6.38
2019-01-14T12:12:47.806Z,6.32
2019-01-14T12:15:21.851Z,6.41
2019-01-14T12:17:50.531Z,6.08
2019-01-14T12:20:19.362Z,6.33
2019-01-14T12:22:48.150Z,6.55
2019-01-14T12:25:16.933Z,6.62
2019-01-14T12:27:45.751Z,6.85
2019-01-14T12:30:29.363Z,7.01
2019-01-14T12:32:58.109Z,6.78
2019-01-14T12:35:26.811Z,6.66
2019-01-14T12:37:55.486Z,6.60
2019-01-14T12:40:25.308Z,6.56
2019-01-14T12:42:54.095Z,6.58
2019-01-14T12:45:23.069Z,6.66
2019-01-14T12:47:54.219Z,6.68
2019-01-14T12:50:24.510Z,6.76
2019-01-14T12:52:53.288Z,6.97
2019-01-14T12:55:22.537Z,6.98
2019-01-14T12:57:51.222Z,6.87
2019-01-14T13:00:25.385Z,6.67
2019-01-14T13:02:58.316Z,6.72
2019-01-14T13:05:25.207Z,6.84
2019-01-14T13:07:53.887Z,6.72
2019-01-14T13:10:22.717Z,6.46
2019-01-14T13:12:51.408Z,6.49
2019-01-14T13:15:22.296Z,6.61
2019-01-14T13:17:51.324Z,6.51
2019-01-14T13:20:21.499Z,6.28
2019-01-14T13:22:50.288Z,6.30
2019-01-14T13:25:19.002Z,6.41
2019-01-14T13:27:47.702Z,6.25
2019-01-14T13:30:19.295Z,6.14
2019-01-14T13:32:48.004Z,5.93
2019-01-14T13:35:16.981Z,5.73
2019-01-14T13:37:45.772Z,5.81
2019-01-14T13:40:15.348Z,5.79
2019-01-14T13:42:44.023Z,5.58
2019-01-14T13:45:15.409Z,5.57
2019-01-14T13:47:44.527Z,5.85
2019-01-14T13:50:16.066Z,5.69
2019-01-14T13:52:44.750Z,5.74
2019-01-14T13:55:14.370Z,5.62
2019-01-14T13:57:43.169Z,5.56
2019-01-14T14:00:15.106Z,5.43
2019-01-14T14:02:43.757Z,5.28
2019-01-14T14:05:12.443Z,5.19
2019-01-14T14:07:41.127Z,5.22
2019-01-14T14:10:18.393Z,5.26
2019-01-14T14:12:46.981Z,5.14
2019-01-14T14:15:17.168Z,5.08
2019-01-14T14:17:46.213Z,5.05
2019-01-14T14:20:18.538Z,5.09
2019-01-14T14:22:47.719Z,5.07
2019-01-14T14:25:16.488Z,4.89
2019-01-14T14:27:45.172Z,4.73
2019-01-14T14:30:22.900Z,5.18
2019-01-14T14:32:51.580Z,5.14
2019-01-14T14:35:20.270Z,5.41
2019-01-14T14:37:48.988Z,5.19
2019-01-14T14:40:17.672Z,5.01
2019-01-14T14:42:46.359Z,4.89
2019-01-14T14:45:15.808Z,4.93
2019-01-14T14:47:44.492Z,4.74
2019-01-14T14:50:16.090Z,4.62
2019-01-14T14:52:44.870Z,4.67
2019-01-14T14:55:13.558Z,4.48
2019-01-14T14:57:42.249Z,4.55
2019-01-14T15:00:16.861Z,4.51
2019-01-14T15:02:45.546Z,4.18
2019-01-14T15:05:14.432Z,4.43
2019-01-14T15:07:43.279Z,4.62
2019-01-14T15:10:14.910Z,4.29
2019-01-14T15:12:43.592Z,4.17
2019-01-14T15:15:15.312Z,3.98
2019-01-14T15:17:43.988Z,3.69
2019-01-14T15:20:15.074Z,3.75
2019-01-14T15:22:43.882Z,3.49
2019-01-14T15:25:12.669Z,3.29
2019-01-14T15:27:41.354Z,3.10
2019-01-14T15:30:16.397Z,3.00
2019-01-14T15:32:45.078Z,3.00
2019-01-14T15:35:13.954Z,2.97
2019-01-14T15:37:42.868Z,3.01
2019-01-14T15:40:14.646Z,3.41
2019-01-14T15:42:43.316Z,3.26
2019-01-14T15:45:14.784Z,3.05
2019-01-14T15:47:43.567Z,3.12
2019-01-14T15:50:12.556Z,3.09
2019-01-14T15:52:41.400Z,2.97
2019-01-14T15:55:16.190Z,3.05
2019-01-14T15:57:44.867Z,3.43
2019-01-14T16:00:15.829Z,3.58
2019-01-14T16:02:44.802Z,3.32
2019-01-14T16:05:13.687Z,2.96
2019-01-14T16:07:42.446Z,2.89
2019-01-14T16:10:16.433Z,2.68
2019-01-14T16:12:45.106Z,2.57
2019-01-14T16:15:14.468Z,2.53
2019-01-14T16:17:43.151Z,2.53
2019-01-14T16:20:20.319Z,2.54
2019-01-14T16:22:50.335Z,2.78
2019-01-14T16:25:19.029Z,2.74
2019-01-14T16:27:47.873Z,2.75
2019-01-14T16:30:21.840Z,2.72
2019-01-14T16:32:50.543Z,2.78
2019-01-14T16:35:19.308Z,2.71
2019-01-14T16:37:48.001Z,2.73
2019-01-14T16:40:18.163Z,2.65
2019-01-14T16:42:47.309Z,2.71
2019-01-14T16:45:18.765Z,2.70
2019-01-14T16:47:47.450Z,2.73
2019-01-14T16:50:18.361Z,2.78
2019-01-14T16:52:47.052Z,2.87
2019-01-14T16:55:17.313Z,2.78
2019-01-14T16:57:46.159Z,3.12
2019-01-14T17:00:17.770Z,3.04
2019-01-14T17:02:46.453Z,2.99
2019-01-14T17:05:16.515Z,2.94
2019-01-14T17:07:45.205Z,2.93
2019-01-14T17:10:17.095Z,2.85
2019-01-14T17:12:45.860Z,2.99
2019-01-14T17:15:14.856Z,2.99
2019-01-14T17:17:43.543Z,3.10
2019-01-14T17:20:17.936Z,3.00
2019-01-14T17:22:46.828Z,2.91
2019-01-14T17:25:15.835Z,2.91
2019-01-14T17:27:45.364Z,2.81
2019-01-14T17:30:16.578Z,2.78
2019-01-14T17:32:45.278Z,3.07
2019-01-14T17:35:15.170Z,2.67
2019-01-14T17:37:43.955Z,2.34
2019-01-14T17:40:16.298Z,1.90
2019-01-14T17:42:45.518Z,1.97
2019-01-14T17:45:14.314Z,2.16
2019-01-14T17:47:43.210Z,2.56
2019-01-14T17:50:14.351Z,3.06
2019-01-14T17:52:43.039Z,3.22
2019-01-14T17:55:11.821Z,3.44
2019-01-14T17:57:40.579Z,3.48
2019-01-14T18:00:15.280Z,3.74
2019-01-14T18:02:46.099Z,3.89
2019-01-14T18:05:14.891Z,4.05
2019-01-14T18:07:43.577Z,4.32
2019-01-14T18:10:14.902Z,4.44
2019-01-14T18:12:43.698Z,4.50
2019-01-14T18:15:12.780Z,4.45
2019-01-14T18:17:41.525Z,4.31
2019-01-14T18:20:15.686Z,4.34
2019-01-14T18:22:44.385Z,4.21
2019-01-14T18:25:13.425Z,4.23
2019-01-14T18:27:42.125Z,4.29
2019-01-14T18:30:13.687Z,4.28
2019-01-14T18:32:42.455Z,4.41
2019-01-14T18:35:11.145Z,4.18
2019-01-14T18:37:39.830Z,4.16
2019-01-14T18:40:11.619Z,4.26
2019-01-14T18:42:40.299Z,4.17
2019-01-14T18:45:11.896Z,4.09
2019-01-14T18:47:40.642Z,4.13
2019-01-14T18:50:12.334Z,4.16
2019-01-14T18:52:41.042Z,4.14
2019-01-14T18:55:09.889Z,4.03
2019-01-14T18:57:38.689Z,3.79
2019-01-14T19:00:13.392Z,3.58
2019-01-14T19:02:42.209Z,3.59
2019-01-14T19:05:10.997Z,3.59
2019-01-14T19:07:39.732Z,3.51
2019-01-14T19:10:10.677Z,3.42
2019-01-14T19:12:39.362Z,3.41
2019-01-14T19:15:16.567Z,3.37
2019-01-14T19:17:45.856Z,3.40
2019-01-14T19:20:23.038Z,3.61
2019-01-14T19:22:52.034Z,3.57
2019-01-14T19:25:20.728Z,3.46
2019-01-14T19:27:49.545Z,3.46
2019-01-14T19:30:20.528Z,3.46
2019-01-14T19:32:49.210Z,3.44
2019-01-14T19:35:18.279Z,3.34
2019-01-14T19:37:47.076Z,3.44
2019-01-14T19:40:17.974Z,3.37
2019-01-14T19:42:47.057Z,3.37
2019-01-14T19:45:18.180Z,3.30
2019-01-14T19:47:47.070Z,3.28
2019-01-14T19:50:18.132Z,3.29
2019-01-14T19:52:46.918Z,3.21
2019-01-14T19:55:15.609Z,3.17
2019-01-14T19:57:44.803Z,3.18
2019-01-14T20:00:22.326Z,3.00
2019-01-14T20:02:51.178Z,3.06
2019-01-14T20:05:19.866Z,3.13
2019-01-14T20:07:49.935Z,3.16
2019-01-14T20:10:19.217Z,3.09
2019-01-14T20:12:48.050Z,3.11
2019-01-14T20:15:18.950Z,3.22
2019-01-14T20:17:47.990Z,3.15
2019-01-14T20:20:16.889Z,3.16
2019-01-14T20:22:45.580Z,3.32
2019-01-14T20:25:14.451Z,3.36
2019-01-14T20:27:43.133Z,3.37
2019-01-14T20:30:14.930Z,3.43
2019-01-14T20:32:43.780Z,3.34
2019-01-14T20:35:12.471Z,3.49
2019-01-14T20:37:42.716Z,3.47
2019-01-14T20:40:16.383Z,3.68
2019-01-14T20:42:45.173Z,3.67
2019-01-14T20:45:15.936Z,3.50
2019-01-14T20:47:44.888Z,3.46
2019-01-14T20:50:18.483Z,3.25
2019-01-14T20:52:47.171Z,3.25
2019-01-14T20:55:15.912Z,3.14
2019-01-14T20:57:44.612Z,3.04
2019-01-14T21:00:19.098Z,2.99
2019-01-14T21:02:47.838Z,2.96
2019-01-14T21:05:17.223Z,3.07
2019-01-14T21:07:45.900Z,3.15
2019-01-14T21:10:16.160Z,3.18
2019-01-14T21:12:45.009Z,3.03
2019-01-14T21:15:14.131Z,2.84
2019-01-14T21:17:50.260Z,2.75
2019-01-14T21:20:38.704Z,2.73
2019-01-14T21:23:07.529Z,2.66
2019-01-14T21:25:36.210Z,2.74
2019-01-14T21:28:18.144Z,2.81
2019-01-14T21:30:52.934Z,2.75
2019-01-14T21:33:24.799Z,2.82
2019-01-14T21:36:00.186Z,2.69
2019-01-14T21:38:38.308Z,2.58
2019-01-14T21:41:07.194Z,2.63
2019-01-14T21:43:49.195Z,2.73
2019-01-14T21:46:17.881Z,2.76
2019-01-14T21:48:46.771Z,2.66
2019-01-14T21:51:15.869Z,2.68
2019-01-14T21:53:44.722Z,2.53
2019-01-14T21:56:13.409Z,2.50
2019-01-14T21:58:42.255Z,2.46
2019-01-14T22:01:10.943Z,2.34
2019-01-14T22:03:39.634Z,2.33
2019-01-14T22:06:08.907Z,2.42
2019-01-14T22:08:37.604Z,2.40
2019-01-14T22:11:06.280Z,2.48
2019-01-14T22:13:44.573Z,2.29
2019-01-14T22:16:19.012Z,2.41
2019-01-14T22:18:52.801Z,2.43
2019-01-14T22:21:32.571Z,2.31
2019-01-14T22:24:02.661Z,2.33
2019-01-14T22:26:39.704Z,2.35
2019-01-14T22:29:14.004Z,2.25
2019-01-14T22:31:47.138Z,2.19
2019-01-14T22:34:22.112Z,2.21
2019-01-14T22:36:50.796Z,2.20
2019-01-14T22:39:19.476Z,2.16
2019-01-14T22:41:48.234Z,2.19
2019-01-14T22:44:16.910Z,2.07
2019-01-14T22:46:45.597Z,2.20
2019-01-14T22:49:14.531Z,2.08
2019-01-14T22:51:43.221Z,2.07
2019-01-14T22:54:11.901Z,2.19
2019-01-14T22:56:40.657Z,2.25
2019-01-14T22:59:09.353Z,2.10
2019-01-14T23:01:38.121Z,2.24
2019-01-14T23:04:06.872Z,2.28
2019-01-14T23:06:35.552Z,2.17
2019-01-14T23:09:06.291Z,2.02
2019-01-14T23:11:35.090Z,2.06
2019-01-14T23:14:03.790Z,1.87
2019-01-14T23:16:32.481Z,1.83
2019-01-14T23:19:01.283Z,1.84
2019-01-14T23:21:29.984Z,1.80
2019-01-14T23:23:58.669Z,2.13
2019-01-14T23:26:27.554Z,2.27
2019-01-14T23:28:56.235Z,2.10
2019-01-14T23:31:25.018Z,1.98
2019-01-14T23:33:53.737Z,2.33
2019-01-14T23:36:22.415Z,2.93
2019-01-14T23:38:51.098Z,3.34
2019-01-14T23:41:19.952Z,3.39
2019-01-14T23:43:48.633Z,3.27
2019-01-14T23:46:17.314Z,3.26
2019-01-14T23:48:46.344Z,3.10
2019-01-14T23:51:15.025Z,3.29
2019-01-14T23:53:43.692Z,3.39
2019-01-14T23:56:12.444Z,3.35
2019-01-14T23:58:41.130Z,3.45
